Santa Cruz/El Trompillo, Bolivia
Current Conditions -  °F | °C
As of 7:00 PM on Tuesday 21 Oct 2014 (Local Time) from SLET Reporting Station
Broken Clouds Broken Clouds  
Wind Chill: 82°   Ceiling: 7000
Heat Index: 85°   Visibility: 5mi
Dew Point: 66°   Wind: 6mph
Humidity: 58%   Direction: 180°S
Pressure: 29.88"   Gusts: NA
Location:  17.81°S, 63.17°W
Report Text: SLET 212300Z 18005KT 8000 FEW025 BKN070 28/19 Q1012
Loading
Personal Weather Stations






























Interactive Weather Map
Tropical Storm Tracking
New forecast layout! Learn more

10-Day Weather Forecast

Advertisements
Track Severe Weather on mobile